sensor_id;sensor_type;location;lat;lon;timestamp;P1;durP1;ratioP1;P2;durP2;ratioP2
9745;SDS011;4912;50.836;12.958;2023-09-30T00:02:01;21.63;;;9.35;;
9745;SDS011;4912;50.836;12.958;2023-09-30T00:04:33;25.50;;;9.50;;
9745;SDS011;4912;50.836;12.958;2023-09-30T00:07:04;22.83;;;9.13;;
9745;SDS011;4912;50.836;12.958;2023-09-30T00:09:40;17.48;;;8.10;;
9745;SDS011;4912;50.836;12.958;2023-09-30T00:12:16;16.85;;;7.47;;
9745;SDS011;4912;50.836;12.958;2023-09-30T00:14:53;13.68;;;5.53;;
9745;SDS011;4912;50.836;12.958;2023-09-30T00:17:25;9.57;;;4.07;;
9745;SDS011;4912;50.836;12.958;2023-09-30T00:22:26;6.20;;;3.13;;
9745;SDS011;4912;50.836;12.958;2023-09-30T00:25:01;5.55;;;2.97;;
9745;SDS011;4912;50.836;12.958;2023-09-30T00:27:37;8.13;;;2.65;;
9745;SDS011;4912;50.836;12.958;2023-09-30T00:30:11;5.63;;;2.20;;
9745;SDS011;4912;50.836;12.958;2023-09-30T00:32:46;4.90;;;2.10;;
9745;SDS011;4912;50.836;12.958;2023-09-30T00:35:19;4.47;;;1.75;;
9745;SDS011;4912;50.836;12.958;2023-09-30T00:37:52;3.72;;;1.52;;
9745;SDS011;4912;50.836;12.958;2023-09-30T00:40:31;5.07;;;1.83;;
9745;SDS011;4912;50.836;12.958;2023-09-30T00:43:05;4.78;;;1.60;;
9745;SDS011;4912;50.836;12.958;2023-09-30T00:45:39;4.85;;;1.40;;
9745;SDS011;4912;50.836;12.958;2023-09-30T00:48:10;7.13;;;1.80;;
9745;SDS011;4912;50.836;12.958;2023-09-30T00:50:45;3.97;;;1.80;;
9745;SDS011;4912;50.836;12.958;2023-09-30T00:53:16;6.72;;;1.70;;
9745;SDS011;4912;50.836;12.958;2023-09-30T00:55:49;5.40;;;1.73;;
9745;SDS011;4912;50.836;12.958;2023-09-30T00:58:22;6.72;;;1.67;;
9745;SDS011;4912;50.836;12.958;2023-09-30T01:01:01;3.47;;;1.60;;
9745;SDS011;4912;50.836;12.958;2023-09-30T01:03:32;9.55;;;2.53;;
9745;SDS011;4912;50.836;12.958;2023-09-30T01:06:05;4.95;;;1.70;;
9745;SDS011;4912;50.836;12.958;2023-09-30T01:08:38;4.97;;;1.60;;
9745;SDS011;4912;50.836;12.958;2023-09-30T01:11:14;6.18;;;1.90;;
9745;SDS011;4912;50.836;12.958;2023-09-30T01:13:47;5.68;;;1.92;;
9745;SDS011;4912;50.836;12.958;2023-09-30T01:19:32;3.72;;;1.30;;
9745;SDS011;4912;50.836;12.958;2023-09-30T01:22:06;5.45;;;1.70;;
9745;SDS011;4912;50.836;12.958;2023-09-30T01:24:41;6.03;;;1.58;;
9745;SDS011;4912;50.836;12.958;2023-09-30T01:27:14;7.07;;;2.10;;
9745;SDS011;4912;50.836;12.958;2023-09-30T01:29:46;4.25;;;1.45;;
9745;SDS011;4912;50.836;12.958;2023-09-30T01:32:20;3.40;;;1.30;;
9745;SDS011;4912;50.836;12.958;2023-09-30T01:34:52;6.90;;;1.75;;
9745;SDS011;4912;50.836;12.958;2023-09-30T01:37:31;4.50;;;1.38;;
9745;SDS011;4912;50.836;12.958;2023-09-30T01:40:02;3.92;;;1.52;;
9745;SDS011;4912;50.836;12.958;2023-09-30T01:42:37;7.45;;;1.83;;
9745;SDS011;4912;50.836;12.958;2023-09-30T01:45:09;8.77;;;1.88;;
9745;SDS011;4912;50.836;12.958;2023-09-30T01:47:40;4.90;;;1.60;;
9745;SDS011;4912;50.836;12.958;2023-09-30T01:50:12;5.80;;;2.10;;
9745;SDS011;4912;50.836;12.958;2023-09-30T01:52:46;5.97;;;2.03;;
9745;SDS011;4912;50.836;12.958;2023-09-30T01:55:17;7.20;;;2.67;;
9745;SDS011;4912;50.836;12.958;2023-09-30T01:57:51;8.43;;;1.83;;
9745;SDS011;4912;50.836;12.958;2023-09-30T02:02:52;7.03;;;1.77;;
9745;SDS011;4912;50.836;12.958;2023-09-30T02:05:24;8.50;;;2.08;;
9745;SDS011;4912;50.836;12.958;2023-09-30T02:07:58;8.88;;;1.80;;
9745;SDS011;4912;50.836;12.958;2023-09-30T02:10:33;5.63;;;1.88;;
9745;SDS011;4912;50.836;12.958;2023-09-30T02:13:16;6.78;;;2.50;;
9745;SDS011;4912;50.836;12.958;2023-09-30T02:15:48;5.85;;;2.03;;
9745;SDS011;4912;50.836;12.958;2023-09-30T02:18:19;5.32;;;1.90;;
9745;SDS011;4912;50.836;12.958;2023-09-30T02:20:53;4.78;;;1.90;;
9745;SDS011;4912;50.836;12.958;2023-09-30T02:23:27;6.45;;;1.90;;
9745;SDS011;4912;50.836;12.958;2023-09-30T02:26:01;7.70;;;2.00;;
9745;SDS011;4912;50.836;12.958;2023-09-30T02:28:35;5.65;;;1.70;;
9745;SDS011;4912;50.836;12.958;2023-09-30T02:31:05;7.35;;;1.80;;
9745;SDS011;4912;50.836;12.958;2023-09-30T02:33:37;8.55;;;2.05;;
9745;SDS011;4912;50.836;12.958;2023-09-30T02:36:15;6.97;;;1.90;;
9745;SDS011;4912;50.836;12.958;2023-09-30T02:38:52;6.82;;;2.15;;
9745;SDS011;4912;50.836;12.958;2023-09-30T02:44:19;5.82;;;2.22;;
9745;SDS011;4912;50.836;12.958;2023-09-30T02:46:50;8.10;;;2.47;;
9745;SDS011;4912;50.836;12.958;2023-09-30T02:49:21;6.72;;;2.28;;
9745;SDS011;4912;50.836;12.958;2023-09-30T02:51:51;7.32;;;2.28;;
9745;SDS011;4912;50.836;12.958;2023-09-30T02:54:32;8.63;;;2.25;;
9745;SDS011;4912;50.836;12.958;2023-09-30T02:57:03;6.82;;;2.28;;
9745;SDS011;4912;50.836;12.958;2023-09-30T02:59:37;8.90;;;2.53;;
9745;SDS011;4912;50.836;12.958;2023-09-30T03:02:09;11.23;;;3.25;;
9745;SDS011;4912;50.836;12.958;2023-09-30T03:04:40;8.52;;;2.53;;
9745;SDS011;4912;50.836;12.958;2023-09-30T03:07:13;11.35;;;2.58;;
9745;SDS011;4912;50.836;12.958;2023-09-30T03:09:55;8.55;;;2.30;;
9745;SDS011;4912;50.836;12.958;2023-09-30T03:12:26;9.32;;;2.30;;
9745;SDS011;4912;50.836;12.958;2023-09-30T03:14:58;9.15;;;2.17;;
9745;SDS011;4912;50.836;12.958;2023-09-30T03:17:31;9.07;;;3.13;;
9745;SDS011;4912;50.836;12.958;2023-09-30T03:20:06;9.95;;;2.65;;
9745;SDS011;4912;50.836;12.958;2023-09-30T03:22:39;6.68;;;2.03;;
9745;SDS011;4912;50.836;12.958;2023-09-30T03:25:20;5.20;;;2.17;;
9745;SDS011;4912;50.836;12.958;2023-09-30T03:27:51;8.05;;;2.55;;
9745;SDS011;4912;50.836;12.958;2023-09-30T03:30:21;7.03;;;2.70;;
9745;SDS011;4912;50.836;12.958;2023-09-30T03:32:52;10.75;;;2.70;;
9745;SDS011;4912;50.836;12.958;2023-09-30T03:35:24;7.75;;;2.33;;
9745;SDS011;4912;50.836;12.958;2023-09-30T03:38:01;7.50;;;2.30;;
9745;SDS011;4912;50.836;12.958;2023-09-30T03:40:38;8.63;;;2.30;;
9745;SDS011;4912;50.836;12.958;2023-09-30T03:43:22;7.20;;;2.55;;
9745;SDS011;4912;50.836;12.958;2023-09-30T03:45:56;12.05;;;5.45;;
9745;SDS011;4912;50.836;12.958;2023-09-30T03:48:29;11.85;;;5.00;;
9745;SDS011;4912;50.836;12.958;2023-09-30T03:51:09;9.48;;;2.80;;
9745;SDS011;4912;50.836;12.958;2023-09-30T03:53:43;10.70;;;2.67;;
9745;SDS011;4912;50.836;12.958;2023-09-30T03:56:18;6.50;;;2.38;;
9745;SDS011;4912;50.836;12.958;2023-09-30T03:58:52;9.48;;;2.90;;
9745;SDS011;4912;50.836;12.958;2023-09-30T04:01:22;9.77;;;2.70;;
9745;SDS011;4912;50.836;12.958;2023-09-30T04:03:56;7.72;;;2.80;;
9745;SDS011;4912;50.836;12.958;2023-09-30T04:06:27;9.02;;;3.28;;
9745;SDS011;4912;50.836;12.958;2023-09-30T04:08:58;11.20;;;3.53;;
9745;SDS011;4912;50.836;12.958;2023-09-30T04:11:39;8.35;;;2.75;;
9745;SDS011;4912;50.836;12.958;2023-09-30T04:14:13;9.63;;;2.85;;
9745;SDS011;4912;50.836;12.958;2023-09-30T04:16:44;8.07;;;2.88;;
9745;SDS011;4912;50.836;12.958;2023-09-30T04:19:15;11.65;;;3.47;;
9745;SDS011;4912;50.836;12.958;2023-09-30T04:21:47;8.70;;;3.08;;
9745;SDS011;4912;50.836;12.958;2023-09-30T04:24:18;10.48;;;3.25;;
9745;SDS011;4912;50.836;12.958;2023-09-30T04:26:52;9.52;;;3.67;;
9745;SDS011;4912;50.836;12.958;2023-09-30T04:29:31;8.60;;;3.03;;
9745;SDS011;4912;50.836;12.958;2023-09-30T04:32:06;25.45;;;12.52;;
9745;SDS011;4912;50.836;12.958;2023-09-30T04:37:10;11.02;;;3.50;;
9745;SDS011;4912;50.836;12.958;2023-09-30T04:39:42;13.65;;;3.35;;
9745;SDS011;4912;50.836;12.958;2023-09-30T04:42:17;9.23;;;3.13;;
9745;SDS011;4912;50.836;12.958;2023-09-30T04:44:47;10.48;;;3.17;;
9745;SDS011;4912;50.836;12.958;2023-09-30T04:47:25;9.98;;;3.10;;
9745;SDS011;4912;50.836;12.958;2023-09-30T04:49:59;10.07;;;3.20;;
9745;SDS011;4912;50.836;12.958;2023-09-30T04:52:36;10.43;;;3.17;;
9745;SDS011;4912;50.836;12.958;2023-09-30T04:55:08;9.93;;;3.22;;
9745;SDS011;4912;50.836;12.958;2023-09-30T04:57:46;12.07;;;3.33;;
9745;SDS011;4912;50.836;12.958;2023-09-30T05:00:18;12.45;;;3.22;;
9745;SDS011;4912;50.836;12.958;2023-09-30T05:02:54;15.77;;;5.20;;
9745;SDS011;4912;50.836;12.958;2023-09-30T05:05:28;14.50;;;5.60;;
9745;SDS011;4912;50.836;12.958;2023-09-30T05:08:13;8.85;;;3.33;;
9745;SDS011;4912;50.836;12.958;2023-09-30T05:10:46;16.25;;;3.90;;
9745;SDS011;4912;50.836;12.958;2023-09-30T05:13:20;11.20;;;3.38;;
9745;SDS011;4912;50.836;12.958;2023-09-30T05:15:51;6.82;;;2.75;;
9745;SDS011;4912;50.836;12.958;2023-09-30T05:18:22;8.70;;;2.78;;
9745;SDS011;4912;50.836;12.958;2023-09-30T05:20:56;9.38;;;3.33;;
9745;SDS011;4912;50.836;12.958;2023-09-30T05:23:29;14.40;;;3.55;;
9745;SDS011;4912;50.836;12.958;2023-09-30T05:26:02;8.77;;;3.20;;
9745;SDS011;4912;50.836;12.958;2023-09-30T05:28:38;11.98;;;3.00;;
9745;SDS011;4912;50.836;12.958;2023-09-30T05:31:13;12.57;;;3.28;;
9745;SDS011;4912;50.836;12.958;2023-09-30T05:33:49;12.48;;;3.00;;
9745;SDS011;4912;50.836;12.958;2023-09-30T05:36:25;10.57;;;3.03;;
9745;SDS011;4912;50.836;12.958;2023-09-30T05:38:56;11.77;;;3.15;;
9745;SDS011;4912;50.836;12.958;2023-09-30T05:41:27;12.80;;;3.08;;
9745;SDS011;4912;50.836;12.958;2023-09-30T05:44:06;10.73;;;3.08;;
9745;SDS011;4912;50.836;12.958;2023-09-30T05:49:17;9.35;;;2.92;;
9745;SDS011;4912;50.836;12.958;2023-09-30T05:54:18;14.37;;;4.23;;
9745;SDS011;4912;50.836;12.958;2023-09-30T05:56:49;12.05;;;4.30;;
9745;SDS011;4912;50.836;12.958;2023-09-30T05:59:25;14.85;;;5.03;;
9745;SDS011;4912;50.836;12.958;2023-09-30T06:01:57;14.48;;;4.50;;
9745;SDS011;4912;50.836;12.958;2023-09-30T06:04:32;11.85;;;4.93;;
9745;SDS011;4912;50.836;12.958;2023-09-30T06:09:33;17.47;;;4.90;;
9745;SDS011;4912;50.836;12.958;2023-09-30T06:12:04;12.73;;;4.55;;
9745;SDS011;4912;50.836;12.958;2023-09-30T06:14:46;16.55;;;5.15;;
9745;SDS011;4912;50.836;12.958;2023-09-30T06:17:22;18.13;;;5.35;;
9745;SDS011;4912;50.836;12.958;2023-09-30T06:19:54;14.20;;;5.13;;
9745;SDS011;4912;50.836;12.958;2023-09-30T06:22:34;26.67;;;11.00;;
9745;SDS011;4912;50.836;12.958;2023-09-30T06:25:07;21.42;;;6.80;;
9745;SDS011;4912;50.836;12.958;2023-09-30T06:27:39;12.65;;;4.25;;
9745;SDS011;4912;50.836;12.958;2023-09-30T06:30:24;17.25;;;4.85;;
9745;SDS011;4912;50.836;12.958;2023-09-30T06:33:01;12.60;;;4.65;;
9745;SDS011;4912;50.836;12.958;2023-09-30T06:35:37;12.02;;;4.78;;
9745;SDS011;4912;50.836;12.958;2023-09-30T06:38:23;12.98;;;5.00;;
9745;SDS011;4912;50.836;12.958;2023-09-30T06:41:04;18.25;;;4.72;;
9745;SDS011;4912;50.836;12.958;2023-09-30T06:43:49;16.73;;;4.72;;
9745;SDS011;4912;50.836;12.958;2023-09-30T06:46:26;14.23;;;4.97;;
9745;SDS011;4912;50.836;12.958;2023-09-30T06:48:59;14.95;;;5.65;;
9745;SDS011;4912;50.836;12.958;2023-09-30T06:51:30;19.23;;;5.13;;
9745;SDS011;4912;50.836;12.958;2023-09-30T06:54:04;14.85;;;4.32;;
9745;SDS011;4912;50.836;12.958;2023-09-30T06:56:45;14.50;;;4.13;;
9745;SDS011;4912;50.836;12.958;2023-09-30T06:59:20;14.32;;;4.07;;
9745;SDS011;4912;50.836;12.958;2023-09-30T07:02:05;17.58;;;5.15;;
9745;SDS011;4912;50.836;12.958;2023-09-30T07:04:42;16.42;;;3.75;;
9745;SDS011;4912;50.836;12.958;2023-09-30T07:07:15;13.32;;;4.32;;
9745;SDS011;4912;50.836;12.958;2023-09-30T07:09:52;15.32;;;3.72;;
9745;SDS011;4912;50.836;12.958;2023-09-30T07:12:26;17.92;;;4.70;;
9745;SDS011;4912;50.836;12.958;2023-09-30T07:15:00;12.40;;;3.75;;
9745;SDS011;4912;50.836;12.958;2023-09-30T07:17:38;14.70;;;3.88;;
9745;SDS011;4912;50.836;12.958;2023-09-30T07:20:15;16.40;;;5.25;;
9745;SDS011;4912;50.836;12.958;2023-09-30T07:22:56;17.25;;;4.70;;
9745;SDS011;4912;50.836;12.958;2023-09-30T07:25:46;11.70;;;3.90;;
9745;SDS011;4912;50.836;12.958;2023-09-30T07:28:18;13.85;;;5.80;;
9745;SDS011;4912;50.836;12.958;2023-09-30T07:30:50;17.50;;;4.60;;
9745;SDS011;4912;50.836;12.958;2023-09-30T07:33:26;23.02;;;9.02;;
9745;SDS011;4912;50.836;12.958;2023-09-30T07:35:59;18.70;;;4.00;;
9745;SDS011;4912;50.836;12.958;2023-09-30T07:38:38;12.40;;;3.63;;
9745;SDS011;4912;50.836;12.958;2023-09-30T07:41:34;13.02;;;3.38;;
9745;SDS011;4912;50.836;12.958;2023-09-30T07:46:44;14.18;;;3.20;;
9745;SDS011;4912;50.836;12.958;2023-09-30T07:49:20;16.23;;;3.40;;
9745;SDS011;4912;50.836;12.958;2023-09-30T07:51:54;16.25;;;3.40;;
9745;SDS011;4912;50.836;12.958;2023-09-30T07:54:32;15.35;;;3.38;;
9745;SDS011;4912;50.836;12.958;2023-09-30T07:59:56;19.85;;;4.38;;
9745;SDS011;4912;50.836;12.958;2023-09-30T08:02:34;13.93;;;3.63;;
9745;SDS011;4912;50.836;12.958;2023-09-30T08:05:14;11.93;;;3.22;;
9745;SDS011;4912;50.836;12.958;2023-09-30T08:07:51;11.45;;;3.50;;
9745;SDS011;4912;50.836;12.958;2023-09-30T08:10:26;10.95;;;3.33;;
9745;SDS011;4912;50.836;12.958;2023-09-30T08:13:16;12.18;;;3.28;;
9745;SDS011;4912;50.836;12.958;2023-09-30T08:15:50;11.27;;;3.40;;
9745;SDS011;4912;50.836;12.958;2023-09-30T08:18:28;11.77;;;3.53;;
9745;SDS011;4912;50.836;12.958;2023-09-30T08:21:17;13.70;;;4.30;;
9745;SDS011;4912;50.836;12.958;2023-09-30T08:23:56;11.15;;;3.50;;
9745;SDS011;4912;50.836;12.958;2023-09-30T08:26:38;19.13;;;3.78;;
9745;SDS011;4912;50.836;12.958;2023-09-30T08:29:11;12.50;;;3.55;;
9745;SDS011;4912;50.836;12.958;2023-09-30T08:31:47;15.10;;;3.63;;
9745;SDS011;4912;50.836;12.958;2023-09-30T08:34:20;20.80;;;4.57;;
9745;SDS011;4912;50.836;12.958;2023-09-30T08:36:54;11.50;;;3.60;;
9745;SDS011;4912;50.836;12.958;2023-09-30T08:39:27;14.63;;;3.25;;
9745;SDS011;4912;50.836;12.958;2023-09-30T08:42:00;10.85;;;3.40;;
9745;SDS011;4912;50.836;12.958;2023-09-30T08:44:41;10.55;;;3.25;;
9745;SDS011;4912;50.836;12.958;2023-09-30T08:47:22;10.63;;;3.40;;
9745;SDS011;4912;50.836;12.958;2023-09-30T08:50:06;18.85;;;3.83;;
9745;SDS011;4912;50.836;12.958;2023-09-30T08:52:46;16.67;;;3.47;;
9745;SDS011;4912;50.836;12.958;2023-09-30T08:55:21;13.95;;;3.00;;
9745;SDS011;4912;50.836;12.958;2023-09-30T08:57:59;10.43;;;3.20;;
9745;SDS011;4912;50.836;12.958;2023-09-30T09:00:34;14.80;;;3.28;;
9745;SDS011;4912;50.836;12.958;2023-09-30T09:03:08;12.38;;;3.45;;
9745;SDS011;4912;50.836;12.958;2023-09-30T09:05:42;13.48;;;3.03;;
9745;SDS011;4912;50.836;12.958;2023-09-30T09:08:16;12.75;;;3.47;;
9745;SDS011;4912;50.836;12.958;2023-09-30T09:10:55;12.68;;;4.22;;
9745;SDS011;4912;50.836;12.958;2023-09-30T09:13:48;14.77;;;3.90;;
9745;SDS011;4912;50.836;12.958;2023-09-30T09:16:26;10.52;;;3.15;;
9745;SDS011;4912;50.836;12.958;2023-09-30T09:19:15;12.32;;;3.55;;
9745;SDS011;4912;50.836;12.958;2023-09-30T09:21:53;10.98;;;3.83;;
9745;SDS011;4912;50.836;12.958;2023-09-30T09:24:34;9.30;;;3.58;;
9745;SDS011;4912;50.836;12.958;2023-09-30T09:27:07;17.42;;;3.95;;
9745;SDS011;4912;50.836;12.958;2023-09-30T09:29:39;10.73;;;3.13;;
9745;SDS011;4912;50.836;12.958;2023-09-30T09:32:16;12.98;;;4.10;;
9745;SDS011;4912;50.836;12.958;2023-09-30T09:35:00;11.60;;;3.38;;
9745;SDS011;4912;50.836;12.958;2023-09-30T09:37:35;14.90;;;3.53;;
9745;SDS011;4912;50.836;12.958;2023-09-30T09:40:11;13.57;;;3.17;;
9745;SDS011;4912;50.836;12.958;2023-09-30T09:42:44;14.30;;;3.03;;
9745;SDS011;4912;50.836;12.958;2023-09-30T09:45:20;11.85;;;3.33;;
9745;SDS011;4912;50.836;12.958;2023-09-30T09:48:04;15.13;;;3.83;;
9745;SDS011;4912;50.836;12.958;2023-09-30T09:50:45;18.38;;;3.55;;
9745;SDS011;4912;50.836;12.958;2023-09-30T09:53:20;8.80;;;2.85;;
9745;SDS011;4912;50.836;12.958;2023-09-30T09:55:55;10.48;;;2.78;;
9745;SDS011;4912;50.836;12.958;2023-09-30T09:58:34;11.85;;;2.97;;
9745;SDS011;4912;50.836;12.958;2023-09-30T10:01:05;9.98;;;2.92;;
9745;SDS011;4912;50.836;12.958;2023-09-30T10:03:45;7.20;;;2.70;;
9745;SDS011;4912;50.836;12.958;2023-09-30T10:09:12;13.13;;;3.22;;
9745;SDS011;4912;50.836;12.958;2023-09-30T10:11:48;11.32;;;3.03;;
9745;SDS011;4912;50.836;12.958;2023-09-30T10:14:30;10.45;;;2.92;;
9745;SDS011;4912;50.836;12.958;2023-09-30T10:17:06;9.57;;;2.70;;
9745;SDS011;4912;50.836;12.958;2023-09-30T10:22:49;10.93;;;3.08;;
9745;SDS011;4912;50.836;12.958;2023-09-30T10:25:54;9.23;;;2.88;;
9745;SDS011;4912;50.836;12.958;2023-09-30T10:28:53;8.90;;;2.60;;
9745;SDS011;4912;50.836;12.958;2023-09-30T10:31:54;7.85;;;2.63;;
9745;SDS011;4912;50.836;12.958;2023-09-30T10:34:27;8.27;;;2.38;;
9745;SDS011;4912;50.836;12.958;2023-09-30T10:37:20;6.90;;;2.38;;
9745;SDS011;4912;50.836;12.958;2023-09-30T10:39:58;9.25;;;2.47;;
9745;SDS011;4912;50.836;12.958;2023-09-30T10:42:43;9.80;;;2.78;;
9745;SDS011;4912;50.836;12.958;2023-09-30T10:51:21;8.70;;;2.65;;
9745;SDS011;4912;50.836;12.958;2023-09-30T10:54:07;9.80;;;2.80;;
9745;SDS011;4912;50.836;12.958;2023-09-30T10:56:42;7.15;;;2.88;;
9745;SDS011;4912;50.836;12.958;2023-09-30T10:59:27;12.25;;;2.75;;
9745;SDS011;4912;50.836;12.958;2023-09-30T11:02:06;6.93;;;2.63;;
9745;SDS011;4912;50.836;12.958;2023-09-30T11:07:24;7.88;;;2.67;;
9745;SDS011;4912;50.836;12.958;2023-09-30T11:10:00;9.25;;;2.80;;
9745;SDS011;4912;50.836;12.958;2023-09-30T11:12:35;12.00;;;2.63;;
9745;SDS011;4912;50.836;12.958;2023-09-30T11:15:08;8.18;;;2.40;;
9745;SDS011;4912;50.836;12.958;2023-09-30T11:17:45;9.00;;;2.95;;
9745;SDS011;4912;50.836;12.958;2023-09-30T11:20:19;10.35;;;3.55;;
9745;SDS011;4912;50.836;12.958;2023-09-30T11:22:51;7.18;;;3.22;;
9745;SDS011;4912;50.836;12.958;2023-09-30T11:25:25;10.93;;;3.20;;
9745;SDS011;4912;50.836;12.958;2023-09-30T11:30:53;7.10;;;2.97;;
9745;SDS011;4912;50.836;12.958;2023-09-30T11:33:30;6.60;;;3.10;;
9745;SDS011;4912;50.836;12.958;2023-09-30T11:36:02;7.72;;;2.70;;
9745;SDS011;4912;50.836;12.958;2023-09-30T11:38:43;6.13;;;2.80;;
9745;SDS011;4912;50.836;12.958;2023-09-30T11:41:31;8.40;;;3.45;;
9745;SDS011;4912;50.836;12.958;2023-09-30T11:44:08;7.60;;;2.80;;
9745;SDS011;4912;50.836;12.958;2023-09-30T11:46:52;8.32;;;3.35;;
9745;SDS011;4912;50.836;12.958;2023-09-30T11:49:35;5.63;;;2.78;;
9745;SDS011;4912;50.836;12.958;2023-09-30T11:52:14;7.70;;;2.97;;
9745;SDS011;4912;50.836;12.958;2023-09-30T11:54:59;6.25;;;2.47;;
9745;SDS011;4912;50.836;12.958;2023-09-30T11:57:36;7.00;;;2.85;;
9745;SDS011;4912;50.836;12.958;2023-09-30T12:00:19;4.57;;;2.35;;
9745;SDS011;4912;50.836;12.958;2023-09-30T12:02:52;4.68;;;2.70;;
9745;SDS011;4912;50.836;12.958;2023-09-30T12:05:27;10.70;;;3.20;;
9745;SDS011;4912;50.836;12.958;2023-09-30T12:07:59;7.28;;;2.70;;
9745;SDS011;4912;50.836;12.958;2023-09-30T12:10:33;8.52;;;2.42;;
9745;SDS011;4912;50.836;12.958;2023-09-30T12:13:04;7.85;;;2.80;;
9745;SDS011;4912;50.836;12.958;2023-09-30T12:15:38;8.15;;;2.95;;
9745;SDS011;4912;50.836;12.958;2023-09-30T12:18:09;5.47;;;2.80;;
9745;SDS011;4912;50.836;12.958;2023-09-30T12:20:49;8.77;;;3.17;;
9745;SDS011;4912;50.836;12.958;2023-09-30T12:23:19;5.57;;;2.45;;
9745;SDS011;4912;50.836;12.958;2023-09-30T12:25:50;6.53;;;2.40;;
9745;SDS011;4912;50.836;12.958;2023-09-30T12:28:37;6.25;;;2.67;;
9745;SDS011;4912;50.836;12.958;2023-09-30T12:31:08;5.60;;;2.75;;
9745;SDS011;4912;50.836;12.958;2023-09-30T12:33:41;5.68;;;2.45;;
9745;SDS011;4912;50.836;12.958;2023-09-30T12:36:14;6.50;;;2.80;;
9745;SDS011;4912;50.836;12.958;2023-09-30T12:38:45;5.47;;;2.60;;
9745;SDS011;4912;50.836;12.958;2023-09-30T12:41:18;6.88;;;2.53;;
9745;SDS011;4912;50.836;12.958;2023-09-30T12:43:52;7.47;;;2.80;;
9745;SDS011;4912;50.836;12.958;2023-09-30T12:46:26;5.70;;;2.80;;
9745;SDS011;4912;50.836;12.958;2023-09-30T12:48:57;4.97;;;2.92;;
9745;SDS011;4912;50.836;12.958;2023-09-30T12:51:34;6.50;;;2.60;;
9745;SDS011;4912;50.836;12.958;2023-09-30T12:54:06;5.68;;;2.88;;
9745;SDS011;4912;50.836;12.958;2023-09-30T12:56:38;5.03;;;2.60;;
9745;SDS011;4912;50.836;12.958;2023-09-30T12:59:09;8.68;;;2.80;;
9745;SDS011;4912;50.836;12.958;2023-09-30T13:01:43;7.15;;;2.50;;
9745;SDS011;4912;50.836;12.958;2023-09-30T13:04:17;7.20;;;3.20;;
9745;SDS011;4912;50.836;12.958;2023-09-30T13:06:52;6.43;;;2.80;;
9745;SDS011;4912;50.836;12.958;2023-09-30T13:09:24;8.63;;;2.97;;
9745;SDS011;4912;50.836;12.958;2023-09-30T13:11:55;7.75;;;2.60;;
9745;SDS011;4912;50.836;12.958;2023-09-30T13:14:27;6.43;;;2.50;;
9745;SDS011;4912;50.836;12.958;2023-09-30T13:16:57;6.47;;;2.67;;
9745;SDS011;4912;50.836;12.958;2023-09-30T13:19:34;6.18;;;2.38;;
9745;SDS011;4912;50.836;12.958;2023-09-30T13:22:08;8.32;;;2.65;;
9745;SDS011;4912;50.836;12.958;2023-09-30T13:24:45;6.38;;;2.40;;
9745;SDS011;4912;50.836;12.958;2023-09-30T13:27:15;6.03;;;2.83;;
9745;SDS011;4912;50.836;12.958;2023-09-30T13:29:46;5.38;;;2.55;;
9745;SDS011;4912;50.836;12.958;2023-09-30T13:32:20;8.38;;;2.50;;
9745;SDS011;4912;50.836;12.958;2023-09-30T13:34:50;8.48;;;2.58;;
9745;SDS011;4912;50.836;12.958;2023-09-30T13:37:28;4.32;;;2.15;;
9745;SDS011;4912;50.836;12.958;2023-09-30T13:40:00;5.38;;;2.28;;
9745;SDS011;4912;50.836;12.958;2023-09-30T13:42:31;7.90;;;2.65;;
9745;SDS011;4912;50.836;12.958;2023-09-30T13:45:02;8.98;;;2.67;;
9745;SDS011;4912;50.836;12.958;2023-09-30T13:47:34;6.25;;;2.50;;
9745;SDS011;4912;50.836;12.958;2023-09-30T13:50:05;8.77;;;2.88;;
9745;SDS011;4912;50.836;12.958;2023-09-30T13:52:46;5.88;;;2.75;;
9745;SDS011;4912;50.836;12.958;2023-09-30T13:55:17;9.18;;;2.60;;
9745;SDS011;4912;50.836;12.958;2023-09-30T13:57:48;10.82;;;2.53;;
9745;SDS011;4912;50.836;12.958;2023-09-30T14:00:19;6.38;;;2.88;;
9745;SDS011;4912;50.836;12.958;2023-09-30T14:02:54;6.05;;;2.10;;
9745;SDS011;4912;50.836;12.958;2023-09-30T14:05:28;7.03;;;2.17;;
9745;SDS011;4912;50.836;12.958;2023-09-30T14:08:04;8.43;;;2.38;;
9745;SDS011;4912;50.836;12.958;2023-09-30T14:10:37;6.43;;;2.40;;
9745;SDS011;4912;50.836;12.958;2023-09-30T14:13:08;7.40;;;2.60;;
9745;SDS011;4912;50.836;12.958;2023-09-30T14:15:43;8.93;;;2.95;;
9745;SDS011;4912;50.836;12.958;2023-09-30T14:18:14;7.57;;;2.50;;
9745;SDS011;4912;50.836;12.958;2023-09-30T14:20:47;9.20;;;2.30;;
9745;SDS011;4912;50.836;12.958;2023-09-30T14:23:22;7.60;;;2.00;;
9745;SDS011;4912;50.836;12.958;2023-09-30T14:25:53;7.35;;;2.50;;
9745;SDS011;4912;50.836;12.958;2023-09-30T14:28:24;7.28;;;2.10;;
9745;SDS011;4912;50.836;12.958;2023-09-30T14:30:55;8.32;;;2.45;;
9745;SDS011;4912;50.836;12.958;2023-09-30T14:33:26;5.85;;;1.98;;
9745;SDS011;4912;50.836;12.958;2023-09-30T14:35:57;7.97;;;2.15;;
9745;SDS011;4912;50.836;12.958;2023-09-30T14:38:30;9.68;;;2.40;;
9745;SDS011;4912;50.836;12.958;2023-09-30T14:41:01;7.10;;;2.30;;
9745;SDS011;4912;50.836;12.958;2023-09-30T14:43:40;6.78;;;2.20;;
9745;SDS011;4912;50.836;12.958;2023-09-30T14:46:12;9.88;;;3.35;;
9745;SDS011;4912;50.836;12.958;2023-09-30T14:48:43;8.25;;;2.63;;
9745;SDS011;4912;50.836;12.958;2023-09-30T14:51:14;11.18;;;2.50;;
9745;SDS011;4912;50.836;12.958;2023-09-30T14:53:51;7.25;;;2.55;;
9745;SDS011;4912;50.836;12.958;2023-09-30T14:56:22;7.32;;;2.42;;
9745;SDS011;4912;50.836;12.958;2023-09-30T14:58:52;6.65;;;2.08;;
9745;SDS011;4912;50.836;12.958;2023-09-30T15:01:23;7.72;;;2.63;;
9745;SDS011;4912;50.836;12.958;2023-09-30T15:03:54;9.90;;;2.78;;
9745;SDS011;4912;50.836;12.958;2023-09-30T15:06:28;6.95;;;2.47;;
9745;SDS011;4912;50.836;12.958;2023-09-30T15:09:07;9.15;;;2.25;;
9745;SDS011;4912;50.836;12.958;2023-09-30T15:11:39;10.43;;;2.33;;
9745;SDS011;4912;50.836;12.958;2023-09-30T15:14:12;7.75;;;2.28;;
9745;SDS011;4912;50.836;12.958;2023-09-30T15:16:43;6.18;;;2.45;;
9745;SDS011;4912;50.836;12.958;2023-09-30T15:19:14;7.70;;;2.63;;
9745;SDS011;4912;50.836;12.958;2023-09-30T15:21:45;7.05;;;2.38;;
9745;SDS011;4912;50.836;12.958;2023-09-30T15:24:19;6.90;;;2.58;;
9745;SDS011;4912;50.836;12.958;2023-09-30T15:26:55;7.35;;;2.78;;
9745;SDS011;4912;50.836;12.958;2023-09-30T15:29:34;8.07;;;2.60;;
9745;SDS011;4912;50.836;12.958;2023-09-30T15:32:05;6.60;;;2.60;;
9745;SDS011;4912;50.836;12.958;2023-09-30T15:34:36;7.68;;;2.35;;
9745;SDS011;4912;50.836;12.958;2023-09-30T15:37:07;7.35;;;2.33;;
9745;SDS011;4912;50.836;12.958;2023-09-30T15:39:42;6.95;;;2.10;;
9745;SDS011;4912;50.836;12.958;2023-09-30T15:42:15;8.25;;;2.53;;
9745;SDS011;4912;50.836;12.958;2023-09-30T15:44:46;6.85;;;2.35;;
9745;SDS011;4912;50.836;12.958;2023-09-30T15:47:20;10.57;;;3.38;;
9745;SDS011;4912;50.836;12.958;2023-09-30T15:49:52;6.65;;;2.30;;
9745;SDS011;4912;50.836;12.958;2023-09-30T15:52:23;6.65;;;2.30;;
9745;SDS011;4912;50.836;12.958;2023-09-30T15:54:59;6.88;;;2.50;;
9745;SDS011;4912;50.836;12.958;2023-09-30T15:57:30;7.75;;;2.67;;
9745;SDS011;4912;50.836;12.958;2023-09-30T16:00:01;10.50;;;2.05;;
9745;SDS011;4912;50.836;12.958;2023-09-30T16:02:33;14.10;;;3.55;;
9745;SDS011;4912;50.836;12.958;2023-09-30T16:05:07;10.23;;;3.30;;
9745;SDS011;4912;50.836;12.958;2023-09-30T16:07:39;8.73;;;3.10;;
9745;SDS011;4912;50.836;12.958;2023-09-30T16:10:15;8.73;;;2.88;;
9745;SDS011;4912;50.836;12.958;2023-09-30T16:12:53;7.25;;;2.60;;
9745;SDS011;4912;50.836;12.958;2023-09-30T16:15:24;10.52;;;2.60;;
9745;SDS011;4912;50.836;12.958;2023-09-30T16:17:58;6.80;;;2.60;;
9745;SDS011;4912;50.836;12.958;2023-09-30T16:20:29;6.78;;;2.58;;
9745;SDS011;4912;50.836;12.958;2023-09-30T16:23:00;13.48;;;2.70;;
9745;SDS011;4912;50.836;12.958;2023-09-30T16:25:33;7.28;;;2.92;;
9745;SDS011;4912;50.836;12.958;2023-09-30T16:28:07;9.73;;;4.60;;